Time;durP1;ratioP1;P1;durP2;ratioP2;P2;SDS_P1;SDS_P2;PMS_P1;PMS_P2;Temp;Humidity;BMP_temperature;BMP_pressure;BME280_temperature;BME280_humidity;BME280_pressure;Samples;Min_cycle;Max_cycle;Signal;HPM_P1;HPM_P2
2024/02/29 00:01:45;;;;;;;34.85;19.30;;;;;;;;;;5040314;28;20022;-83
2024/02/29 00:04:11;;;;;;;37.65;21.35;;;;;;;;;;5038209;28;20052;-81
2024/02/29 00:06:37;;;;;;;35.08;20.33;;;;;;;;;;5030896;28;20042;-82
2024/02/29 00:09:03;;;;;;;34.72;19.65;;;;;;;;;;5038308;28;20014;-82
2024/02/29 00:11:29;;;;;;;34.78;18.23;;;;;;;;;;5032394;28;20033;-83
2024/02/29 00:13:56;;;;;;;28.75;16.63;;;;;;;;;;5048422;28;20029;-82
2024/02/29 00:16:22;;;;;;;27.27;15.82;;;;;;;;;;5035997;28;20120;-84
2024/02/29 00:18:48;;;;;;;23.45;14.10;;;;;;;;;;5056908;28;20029;-83
2024/02/29 00:21:14;;;;;;;21.38;13.60;;;;;;;;;;5036859;28;20053;-83
2024/02/29 00:23:41;;;;;;;27.83;15.50;;;;;;;;;;5050449;28;20029;-82
2024/02/29 00:26:07;;;;;;;28.23;16.33;;;;;;;;;;5033915;28;20491;-84
2024/02/29 00:28:33;;;;;;;27.25;15.10;;;;;;;;;;5041029;28;20037;-82
2024/02/29 00:30:59;;;;;;;27.58;15.73;;;;;;;;;;5032447;28;20029;-83
2024/02/29 00:33:25;;;;;;;26.67;15.95;;;;;;;;;;5033300;28;20077;-83
2024/02/29 00:35:52;;;;;;;26.25;15.93;;;;;;;;;;5033833;28;20026;-83
2024/02/29 00:38:18;;;;;;;33.72;18.45;;;;;;;;;;5053022;28;20025;-83
2024/02/29 00:40:44;;;;;;;34.00;18.90;;;;;;;;;;5049728;28;20026;-80
2024/02/29 00:43:10;;;;;;;31.77;17.83;;;;;;;;;;5043790;28;20022;-82
2024/02/29 00:45:36;;;;;;;34.42;18.60;;;;;;;;;;5051385;28;20034;-83
2024/02/29 00:48:02;;;;;;;30.95;17.25;;;;;;;;;;5026585;28;20049;-81
2024/02/29 00:50:29;;;;;;;34.08;18.17;;;;;;;;;;5038340;28;20022;-83
2024/02/29 00:52:55;;;;;;;32.78;18.50;;;;;;;;;;5049996;28;20113;-83
2024/02/29 00:55:21;;;;;;;32.65;18.35;;;;;;;;;;5047685;28;20026;-82
2024/02/29 00:57:49;;;;;;;29.75;16.50;;;;;;;;;;5036721;28;20028;-83
2024/02/29 01:00:16;;;;;;;27.95;16.92;;;;;;;;;;5042134;28;20013;-83
2024/02/29 01:02:42;;;;;;;30.85;16.48;;;;;;;;;;5051363;28;20032;-84
2024/02/29 01:05:08;;;;;;;28.60;15.73;;;;;;;;;;5036057;28;20056;-83
2024/02/29 01:07:36;;;;;;;30.05;16.92;;;;;;;;;;5042888;28;20093;-83
2024/02/29 01:10:05;;;;;;;34.20;18.75;;;;;;;;;;5032413;28;20097;-83
2024/02/29 01:12:31;;;;;;;32.08;17.67;;;;;;;;;;5043454;28;20018;-83
2024/02/29 01:14:57;;;;;;;31.83;18.13;;;;;;;;;;5041216;28;20120;-83
2024/02/29 01:17:24;;;;;;;30.45;17.13;;;;;;;;;;5040807;28;20386;-82
2024/02/29 01:19:51;;;;;;;24.60;14.68;;;;;;;;;;5053128;28;20025;-82
2024/02/29 01:22:17;;;;;;;25.35;14.75;;;;;;;;;;5039666;28;20021;-83
2024/02/29 01:24:43;;;;;;;25.05;13.95;;;;;;;;;;5035653;28;20048;-81
2024/02/29 01:27:09;;;;;;;19.08;12.48;;;;;;;;;;5036732;28;20028;-83
2024/02/29 01:29:39;;;;;;;20.20;12.93;;;;;;;;;;5056924;28;20021;-81
2024/02/29 01:32:05;;;;;;;22.85;13.02;;;;;;;;;;5056342;28;20018;-82
2024/02/29 01:34:32;;;;;;;20.35;12.23;;;;;;;;;;5039947;28;20022;-83
2024/02/29 01:36:58;;;;;;;21.65;12.60;;;;;;;;;;5033098;28;20454;-82
2024/02/29 01:39:24;;;;;;;17.75;10.80;;;;;;;;;;5043076;28;20021;-80
2024/02/29 01:41:50;;;;;;;20.25;12.10;;;;;;;;;;5056147;28;20125;-83
2024/02/29 01:44:16;;;;;;;17.23;11.55;;;;;;;;;;5061385;28;20030;-82
2024/02/29 01:46:43;;;;;;;16.08;10.25;;;;;;;;;;5036330;28;20060;-83
2024/02/29 01:49:09;;;;;;;17.10;10.57;;;;;;;;;;5034934;28;20033;-82
2024/02/29 01:51:35;;;;;;;18.50;10.85;;;;;;;;;;5040156;28;20024;-83
2024/02/29 01:54:01;;;;;;;19.75;11.38;;;;;;;;;;5042303;28;20029;-83
2024/02/29 01:56:27;;;;;;;16.55;10.55;;;;;;;;;;5057473;28;20013;-83
2024/02/29 01:58:56;;;;;;;16.52;10.23;;;;;;;;;;5043411;28;20037;-84
2024/02/29 02:01:24;;;;;;;15.35;9.73;;;;;;;;;;5040920;28;19997;-83
2024/02/29 02:03:50;;;;;;;17.15;10.60;;;;;;;;;;5042695;28;20028;-83
2024/02/29 02:06:16;;;;;;;23.75;14.05;;;;;;;;;;5043468;28;20077;-83
2024/02/29 02:08:42;;;;;;;23.52;13.50;;;;;;;;;;5051138;28;20038;-83
2024/02/29 02:11:09;;;;;;;27.85;15.30;;;;;;;;;;5029452;28;20026;-82
2024/02/29 02:13:35;;;;;;;25.70;14.85;;;;;;;;;;5055734;28;20026;-81
2024/02/29 02:16:02;;;;;;;27.95;15.95;;;;;;;;;;5037663;28;20025;-84
2024/02/29 02:18:29;;;;;;;25.02;14.48;;;;;;;;;;5054004;28;20068;-84
2024/02/29 02:20:55;;;;;;;25.92;14.63;;;;;;;;;;5042554;28;20052;-83
2024/02/29 02:23:21;;;;;;;21.58;12.95;;;;;;;;;;5029285;28;20030;-82
2024/02/29 02:25:48;;;;;;;24.55;13.70;;;;;;;;;;5051924;28;20018;-83
2024/02/29 02:28:14;;;;;;;21.35;13.35;;;;;;;;;;5045212;28;20025;-82
2024/02/29 02:30:41;;;;;;;31.27;18.00;;;;;;;;;;5044091;28;20022;-83
2024/02/29 02:33:07;;;;;;;35.45;18.77;;;;;;;;;;5047328;28;20052;-82
2024/02/29 02:35:34;;;;;;;36.38;19.70;;;;;;;;;;5044371;28;20018;-83
2024/02/29 02:38:03;;;;;;;31.50;19.38;;;;;;;;;;5040082;28;20068;-82
2024/02/29 02:40:29;;;;;;;33.15;18.42;;;;;;;;;;5044612;28;20077;-83
2024/02/29 02:42:55;;;;;;;28.52;16.48;;;;;;;;;;5043435;28;20105;-82
2024/02/29 02:45:21;;;;;;;25.98;15.70;;;;;;;;;;5055536;28;20085;-83
2024/02/29 02:47:48;;;;;;;28.98;16.73;;;;;;;;;;5033219;28;20013;-84
2024/02/29 02:50:14;;;;;;;31.00;17.35;;;;;;;;;;5051566;28;20073;-82
2024/02/29 02:52:41;;;;;;;36.83;19.02;;;;;;;;;;5043083;28;20493;-81
2024/02/29 02:55:07;;;;;;;34.65;19.63;;;;;;;;;;5029151;28;20056;-82
2024/02/29 02:57:33;;;;;;;32.17;17.15;;;;;;;;;;5038185;28;20022;-83
2024/02/29 02:59:59;;;;;;;27.42;15.70;;;;;;;;;;5037183;28;20029;-82
2024/02/29 03:02:25;;;;;;;30.38;17.17;;;;;;;;;;5043292;28;20025;-84
2024/02/29 03:04:52;;;;;;;29.65;17.05;;;;;;;;;;5037353;28;20029;-82
2024/02/29 03:07:19;;;;;;;33.67;19.08;;;;;;;;;;5051034;28;20022;-81
2024/02/29 03:09:46;;;;;;;35.35;18.80;;;;;;;;;;5034449;28;20021;-82
2024/02/29 03:12:12;;;;;;;33.25;18.13;;;;;;;;;;5046789;28;20030;-82
2024/02/29 03:14:38;;;;;;;29.90;16.35;;;;;;;;;;5052674;28;20021;-82
2024/02/29 03:17:04;;;;;;;33.30;17.05;;;;;;;;;;5034179;28;20030;-82
2024/02/29 03:19:30;;;;;;;32.58;18.65;;;;;;;;;;5046374;28;20021;-82
2024/02/29 03:21:56;;;;;;;34.35;19.10;;;;;;;;;;5029888;28;20022;-82
2024/02/29 03:24:22;;;;;;;33.17;19.40;;;;;;;;;;5043355;28;20022;-82
2024/02/29 03:26:48;;;;;;;36.97;20.65;;;;;;;;;;5047322;28;20037;-83
2024/02/29 03:29:14;;;;;;;37.65;21.15;;;;;;;;;;5065374;28;20477;-81
2024/02/29 03:31:44;;;;;;;37.55;20.70;;;;;;;;;;5059289;28;20025;-81
2024/02/29 03:34:10;;;;;;;40.10;21.65;;;;;;;;;;5035879;28;20030;-83
2024/02/29 03:36:37;;;;;;;34.40;19.60;;;;;;;;;;5058667;28;20132;-82
2024/02/29 03:39:05;;;;;;;36.42;19.27;;;;;;;;;;5046391;28;20582;-82
2024/02/29 03:41:31;;;;;;;31.10;17.90;;;;;;;;;;5050404;28;20038;-81
2024/02/29 03:43:58;;;;;;;29.95;17.13;;;;;;;;;;5053831;28;20085;-83
2024/02/29 03:46:24;;;;;;;28.02;15.07;;;;;;;;;;5062463;28;20042;-83
2024/02/29 03:48:50;;;;;;;24.42;13.32;;;;;;;;;;5062316;28;20037;-82
2024/02/29 03:51:18;;;;;;;25.58;14.15;;;;;;;;;;5035263;28;20037;-83
2024/02/29 03:53:44;;;;;;;21.90;12.43;;;;;;;;;;5050376;28;20005;-84
2024/02/29 03:56:11;;;;;;;21.52;11.85;;;;;;;;;;5040560;28;19998;-83
2024/02/29 03:58:38;;;;;;;19.98;11.55;;;;;;;;;;5057876;28;20014;-83
2024/02/29 04:01:05;;;;;;;19.38;11.00;;;;;;;;;;5036075;28;20033;-82
2024/02/29 04:03:31;;;;;;;15.63;10.00;;;;;;;;;;5041162;28;20075;-82
2024/02/29 04:05:57;;;;;;;17.23;9.93;;;;;;;;;;5043437;28;20030;-82
2024/02/29 04:08:23;;;;;;;14.98;9.20;;;;;;;;;;5043722;28;20018;-82
2024/02/29 04:10:50;;;;;;;15.13;9.60;;;;;;;;;;5047980;28;20045;-82
2024/02/29 04:13:18;;;;;;;13.27;8.43;;;;;;;;;;5050136;28;20084;-80
2024/02/29 04:15:44;;;;;;;14.35;8.27;;;;;;;;;;5047326;28;20026;-83
2024/02/29 04:18:10;;;;;;;14.45;8.57;;;;;;;;;;5041276;28;20018;-83
2024/02/29 04:20:36;;;;;;;12.63;7.90;;;;;;;;;;5055187;28;20015;-83
2024/02/29 04:23:02;;;;;;;17.00;9.32;;;;;;;;;;5038903;28;20022;-82
2024/02/29 04:25:29;;;;;;;18.38;10.68;;;;;;;;;;5013027;28;20037;-80
2024/02/29 04:27:55;;;;;;;15.82;10.05;;;;;;;;;;5034402;28;20034;-81
2024/02/29 04:30:21;;;;;;;18.83;10.13;;;;;;;;;;5028921;28;20030;-79
2024/02/29 04:32:47;;;;;;;16.92;9.48;;;;;;;;;;5042778;28;20037;-80
2024/02/29 04:35:13;;;;;;;22.10;13.10;;;;;;;;;;5042381;28;20082;-79
2024/02/29 04:37:39;;;;;;;31.40;17.63;;;;;;;;;;5048455;28;20037;-78
2024/02/29 04:40:07;;;;;;;33.30;18.20;;;;;;;;;;5026452;28;20037;-80
2024/02/29 04:42:33;;;;;;;30.75;16.92;;;;;;;;;;5030100;28;20331;-79
2024/02/29 04:44:59;;;;;;;40.40;20.75;;;;;;;;;;5044360;28;20510;-78
2024/02/29 04:47:25;;;;;;;34.95;18.67;;;;;;;;;;5031676;28;20014;-80
2024/02/29 04:49:51;;;;;;;31.40;17.90;;;;;;;;;;5045628;28;20121;-80
2024/02/29 04:52:18;;;;;;;30.50;17.70;;;;;;;;;;5019475;28;20106;-82
2024/02/29 04:54:44;;;;;;;26.98;14.75;;;;;;;;;;5046031;28;20095;-82
2024/02/29 04:57:10;;;;;;;25.92;14.50;;;;;;;;;;5034558;28;20052;-81
2024/02/29 04:59:36;;;;;;;26.98;13.88;;;;;;;;;;5066809;28;20029;-80
2024/02/29 05:02:02;;;;;;;20.73;11.93;;;;;;;;;;5040864;28;20025;-81
2024/02/29 05:04:29;;;;;;;25.85;14.57;;;;;;;;;;5031270;28;20020;-82
2024/02/29 05:06:56;;;;;;;26.65;14.68;;;;;;;;;;5032823;28;20028;-79
2024/02/29 05:09:22;;;;;;;31.33;16.95;;;;;;;;;;5033577;28;20033;-82
2024/02/29 05:11:48;;;;;;;28.02;16.23;;;;;;;;;;5048555;28;20036;-83
2024/02/29 05:14:15;;;;;;;28.67;15.98;;;;;;;;;;5026749;28;20085;-79
2024/02/29 05:16:41;;;;;;;25.40;14.50;;;;;;;;;;5037492;28;20031;-81
2024/02/29 05:19:07;;;;;;;20.98;12.50;;;;;;;;;;5011103;28;20030;-81
2024/02/29 05:21:33;;;;;;;22.67;13.38;;;;;;;;;;5026264;28;20026;-80
2024/02/29 05:23:59;;;;;;;25.77;13.82;;;;;;;;;;5043742;28;20034;-83
2024/02/29 05:26:25;;;;;;;25.50;14.48;;;;;;;;;;5044847;28;20072;-78
2024/02/29 05:28:53;;;;;;;22.15;12.70;;;;;;;;;;5041219;28;20033;-78
2024/02/29 05:31:20;;;;;;;20.00;11.38;;;;;;;;;;5038017;28;20033;-80
2024/02/29 05:33:46;;;;;;;21.75;12.07;;;;;;;;;;5027635;28;20025;-79
2024/02/29 05:36:14;;;;;;;19.92;12.68;;;;;;;;;;5012329;28;20025;-80
2024/02/29 05:38:40;;;;;;;24.70;13.52;;;;;;;;;;5019529;28;20052;-80
2024/02/29 05:41:07;;;;;;;23.02;13.52;;;;;;;;;;5028488;28;20037;-79
2024/02/29 05:43:34;;;;;;;21.88;12.23;;;;;;;;;;5022300;28;20022;-79
2024/02/29 05:46:00;;;;;;;20.88;12.07;;;;;;;;;;5022377;28;20026;-79
2024/02/29 05:48:26;;;;;;;19.13;10.63;;;;;;;;;;5021320;28;20025;-80
2024/02/29 05:50:52;;;;;;;16.58;10.07;;;;;;;;;;5020136;28;20026;-80
2024/02/29 05:53:18;;;;;;;17.42;10.00;;;;;;;;;;5035824;28;20121;-79
2024/02/29 05:55:44;;;;;;;17.67;10.48;;;;;;;;;;5021976;28;20100;-78
2024/02/29 05:58:10;;;;;;;15.52;8.93;;;;;;;;;;5018309;28;20029;-80
2024/02/29 06:00:36;;;;;;;15.27;9.40;;;;;;;;;;5020562;28;20370;-79
2024/02/29 06:03:03;;;;;;;13.25;8.10;;;;;;;;;;5019904;28;20022;-78
2024/02/29 06:05:30;;;;;;;14.23;8.02;;;;;;;;;;5030441;28;20027;-79
2024/02/29 06:07:57;;;;;;;15.73;8.68;;;;;;;;;;5029875;28;20017;-78
2024/02/29 06:10:23;;;;;;;12.77;8.25;;;;;;;;;;5016003;28;20493;-77
2024/02/29 06:12:49;;;;;;;12.82;7.45;;;;;;;;;;5020175;28;20070;-79
2024/02/29 06:15:15;;;;;;;13.52;7.95;;;;;;;;;;5020813;28;20029;-79
2024/02/29 06:17:41;;;;;;;13.10;7.72;;;;;;;;;;5017522;28;20057;-78
2024/02/29 06:20:10;;;;;;;11.07;7.13;;;;;;;;;;5017856;28;20144;-77
2024/02/29 06:22:36;;;;;;;13.32;7.78;;;;;;;;;;5013793;28;20046;-78
2024/02/29 06:25:04;;;;;;;13.45;8.95;;;;;;;;;;5012464;28;20026;-79
2024/02/29 06:27:30;;;;;;;11.10;7.45;;;;;;;;;;5009434;28;20062;-79
2024/02/29 06:29:56;;;;;;;12.20;7.30;;;;;;;;;;5015947;28;20396;-77
2024/02/29 06:32:22;;;;;;;13.35;7.57;;;;;;;;;;5015488;28;20030;-78
2024/02/29 06:34:50;;;;;;;12.40;7.20;;;;;;;;;;5011974;28;20489;-79
2024/02/29 06:37:16;;;;;;;11.75;7.65;;;;;;;;;;5010240;28;20022;-78
2024/02/29 06:39:42;;;;;;;12.90;7.95;;;;;;;;;;5014058;28;20101;-77
2024/02/29 06:42:08;;;;;;;14.85;8.63;;;;;;;;;;5015219;28;20026;-77
2024/02/29 06:44:35;;;;;;;22.27;13.35;;;;;;;;;;5028011;28;20049;-78
2024/02/29 06:47:01;;;;;;;22.48;12.73;;;;;;;;;;5008661;28;20029;-79
2024/02/29 06:49:27;;;;;;;27.83;13.57;;;;;;;;;;5021379;28;20034;-79
2024/02/29 06:51:53;;;;;;;22.23;12.55;;;;;;;;;;5015926;28;20469;-77
2024/02/29 06:54:19;;;;;;;24.40;14.27;;;;;;;;;;5015743;28;20029;-78
2024/02/29 06:56:48;;;;;;;26.80;14.48;;;;;;;;;;5016902;28;20029;-79
2024/02/29 06:59:14;;;;;;;31.52;17.27;;;;;;;;;;5025515;28;20065;-79
2024/02/29 07:01:40;;;;;;;36.58;18.90;;;;;;;;;;5030293;28;20038;-78
2024/02/29 07:04:07;;;;;;;38.80;18.30;;;;;;;;;;5031252;28;20174;-78
2024/02/29 07:06:34;;;;;;;26.30;14.77;;;;;;;;;;5015001;28;20010;-78
2024/02/29 07:09:01;;;;;;;25.38;15.35;;;;;;;;;;5025104;28;20018;-79
2024/02/29 07:11:28;;;;;;;25.80;15.55;;;;;;;;;;5027478;28;20006;-78
2024/02/29 07:13:54;;;;;;;28.13;14.77;;;;;;;;;;5024838;28;20470;-79
2024/02/29 07:16:20;;;;;;;26.20;14.43;;;;;;;;;;5021941;28;20030;-78
2024/02/29 07:18:47;;;;;;;23.83;12.95;;;;;;;;;;5020801;28;20072;-76
2024/02/29 07:21:13;;;;;;;27.10;14.27;;;;;;;;;;5045369;28;20026;-76
2024/02/29 07:23:39;;;;;;;25.10;13.93;;;;;;;;;;5023879;28;20076;-75
2024/02/29 07:26:05;;;;;;;22.33;12.70;;;;;;;;;;5036127;28;20033;-77
2024/02/29 07:28:32;;;;;;;23.77;13.70;;;;;;;;;;5023355;28;20030;-75
2024/02/29 07:30:58;;;;;;;24.40;13.80;;;;;;;;;;5022097;28;20022;-76
2024/02/29 07:33:24;;;;;;;24.63;13.88;;;;;;;;;;5046222;28;20009;-76
2024/02/29 07:35:50;;;;;;;23.50;13.18;;;;;;;;;;5033689;28;20033;-77
2024/02/29 07:38:17;;;;;;;20.65;11.75;;;;;;;;;;5048316;28;20030;-77
2024/02/29 07:40:43;;;;;;;23.88;12.90;;;;;;;;;;5031516;28;20042;-76
2024/02/29 07:43:09;;;;;;;20.23;11.43;;;;;;;;;;5026427;28;20049;-77
2024/02/29 07:45:36;;;;;;;20.80;11.02;;;;;;;;;;5027825;28;20033;-76
2024/02/29 07:48:02;;;;;;;20.30;11.35;;;;;;;;;;5025726;28;20400;-76
2024/02/29 07:50:31;;;;;;;20.02;12.13;;;;;;;;;;5026009;28;20037;-77
2024/02/29 07:52:57;;;;;;;27.00;13.98;;;;;;;;;;5039448;28;20497;-77
2024/02/29 07:55:24;;;;;;;27.60;14.75;;;;;;;;;;5024654;28;20099;-77
2024/02/29 07:57:51;;;;;;;25.55;13.98;;;;;;;;;;5023519;28;20022;-77
2024/02/29 08:00:17;;;;;;;30.15;15.68;;;;;;;;;;5053206;28;20059;-77
2024/02/29 08:02:46;;;;;;;30.65;16.30;;;;;;;;;;5031170;28;20049;-78
2024/02/29 08:05:13;;;;;;;30.45;17.00;;;;;;;;;;5027491;28;20030;-77
2024/02/29 08:07:39;;;;;;;32.78;17.75;;;;;;;;;;5021745;28;20050;-77
2024/02/29 08:10:06;;;;;;;36.10;19.42;;;;;;;;;;5016826;28;20021;-76
2024/02/29 08:12:32;;;;;;;30.95;17.35;;;;;;;;;;5027268;28;20424;-77
2024/02/29 08:14:58;;;;;;;34.78;19.25;;;;;;;;;;5042806;28;20049;-77
2024/02/29 08:17:28;;;;;;;30.13;17.42;;;;;;;;;;5041844;28;20022;-77
2024/02/29 08:19:56;;;;;;;33.05;16.85;;;;;;;;;;5026676;28;20030;-77
2024/02/29 08:22:22;;;;;;;25.08;14.68;;;;;;;;;;5029869;28;20112;-76
2024/02/29 08:24:48;;;;;;;27.73;16.27;;;;;;;;;;5045378;28;20368;-77
2024/02/29 08:27:14;;;;;;;26.35;14.60;;;;;;;;;;5041958;28;20057;-76
2024/02/29 08:29:40;;;;;;;22.17;12.48;;;;;;;;;;5023992;28;20033;-76
2024/02/29 08:32:07;;;;;;;22.55;12.73;;;;;;;;;;5023682;28;20036;-77
2024/02/29 08:34:33;;;;;;;18.58;11.38;;;;;;;;;;5048407;28;20472;-75
2024/02/29 08:36:59;;;;;;;19.58;11.82;;;;;;;;;;5026505;28;20026;-76
2024/02/29 08:39:25;;;;;;;17.52;10.35;;;;;;;;;;5032939;28;20056;-76
2024/02/29 08:41:52;;;;;;;16.90;10.13;;;;;;;;;;5036353;28;20023;-77
2024/02/29 08:44:18;;;;;;;19.40;10.98;;;;;;;;;;5042906;28;20529;-77
2024/02/29 08:46:44;;;;;;;13.63;9.43;;;;;;;;;;5028851;28;20029;-76
2024/02/29 08:49:10;;;;;;;15.57;10.00;;;;;;;;;;5022711;28;20088;-77
2024/02/29 08:51:36;;;;;;;19.10;11.10;;;;;;;;;;5023407;28;20025;-77
2024/02/29 08:54:06;;;;;;;21.27;12.02;;;;;;;;;;5044483;28;20034;-77
2024/02/29 08:56:33;;;;;;;21.98;12.95;;;;;;;;;;5029056;28;20037;-76
2024/02/29 08:58:59;;;;;;;20.15;12.00;;;;;;;;;;5049395;28;20085;-77
2024/02/29 09:01:26;;;;;;;20.42;11.48;;;;;;;;;;5041609;28;20022;-77
2024/02/29 09:03:53;;;;;;;21.73;12.50;;;;;;;;;;5035241;28;20026;-76
2024/02/29 09:06:19;;;;;;;23.23;13.98;;;;;;;;;;5035478;28;20026;-77
2024/02/29 09:08:45;;;;;;;27.40;15.23;;;;;;;;;;5052648;28;20077;-76
2024/02/29 09:11:11;;;;;;;28.42;16.77;;;;;;;;;;5035960;28;20117;-76
2024/02/29 09:13:37;;;;;;;31.30;17.23;;;;;;;;;;5030382;28;20033;-77
2024/02/29 09:16:03;;;;;;;26.08;14.30;;;;;;;;;;5029816;28;20044;-78
2024/02/29 09:18:30;;;;;;;31.38;17.45;;;;;;;;;;5042333;28;20026;-77
2024/02/29 09:20:56;;;;;;;29.27;16.85;;;;;;;;;;5028347;28;20030;-78
2024/02/29 09:23:23;;;;;;;28.98;16.42;;;;;;;;;;5037798;28;20151;-77
2024/02/29 09:25:49;;;;;;;27.77;15.80;;;;;;;;;;5053430;28;20042;-78
2024/02/29 09:28:17;;;;;;;32.67;18.00;;;;;;;;;;5041959;28;20022;-76
2024/02/29 09:30:44;;;;;;;40.00;23.38;;;;;;;;;;5021023;28;20090;-78
2024/02/29 09:33:11;;;;;;;40.33;22.50;;;;;;;;;;5018494;28;20041;-77
2024/02/29 09:35:37;;;;;;;40.92;21.25;;;;;;;;;;5022567;28;20031;-77
2024/02/29 09:38:04;;;;;;;34.67;18.85;;;;;;;;;;5028283;28;20029;-77
2024/02/29 09:40:30;;;;;;;27.02;16.48;;;;;;;;;;5027818;28;20101;-78
2024/02/29 09:42:57;;;;;;;27.10;15.25;;;;;;;;;;5039211;28;20061;-76
2024/02/29 09:45:23;;;;;;;22.40;13.75;;;;;;;;;;5025606;28;20045;-79
2024/02/29 09:47:51;;;;;;;22.52;12.18;;;;;;;;;;5023778;28;20025;-77
2024/02/29 09:50:17;;;;;;;20.50;12.52;;;;;;;;;;5023457;28;20025;-76
2024/02/29 09:52:43;;;;;;;19.08;11.77;;;;;;;;;;5023751;28;20034;-79
2024/02/29 09:55:13;;;;;;;18.05;11.27;;;;;;;;;;5037002;28;20030;-79
2024/02/29 09:57:40;;;;;;;16.98;11.13;;;;;;;;;;5018133;28;20389;-78
2024/02/29 10:00:10;;;;;;;13.70;9.45;;;;;;;;;;5034261;28;20017;-77
2024/02/29 10:02:38;;;;;;;16.90;10.40;;;;;;;;;;5030993;28;20385;-77
2024/02/29 10:05:05;;;;;;;17.92;10.63;;;;;;;;;;5030275;28;20052;-77
2024/02/29 10:07:31;;;;;;;14.23;9.82;;;;;;;;;;5035241;28;20005;-77
2024/02/29 10:09:58;;;;;;;17.55;10.07;;;;;;;;;;5030315;28;20034;-78
2024/02/29 10:12:24;;;;;;;23.15;14.65;;;;;;;;;;5024151;28;20033;-78
2024/02/29 10:14:59;;;;;;;22.75;13.82;;;;;;;;;;5026394;28;20089;-78
2024/02/29 10:17:25;;;;;;;24.55;14.23;;;;;;;;;;5035455;28;20113;-78
2024/02/29 10:19:52;;;;;;;33.35;17.45;;;;;;;;;;5023759;28;20022;-77
2024/02/29 10:22:21;;;;;;;28.15;15.07;;;;;;;;;;5022208;28;20014;-78
2024/02/29 10:24:54;;;;;;;24.23;14.05;;;;;;;;;;5035048;28;20080;-80
2024/02/29 10:27:22;;;;;;;22.70;12.95;;;;;;;;;;5012165;28;20446;-81
2024/02/29 10:29:51;;;;;;;17.35;10.98;;;;;;;;;;5030471;28;20037;-80
2024/02/29 10:32:18;;;;;;;24.63;13.40;;;;;;;;;;5033174;28;20524;-77
2024/02/29 10:34:44;;;;;;;18.10;10.73;;;;;;;;;;5015342;28;20068;-76
2024/02/29 10:37:11;;;;;;;20.50;12.05;;;;;;;;;;5017024;28;20029;-78
2024/02/29 10:39:40;;;;;;;24.17;13.50;;;;;;;;;;5016450;28;20053;-77
2024/02/29 10:42:06;;;;;;;17.75;11.23;;;;;;;;;;5034394;28;20072;-78
2024/02/29 10:44:33;;;;;;;18.80;9.77;;;;;;;;;;5012186;28;20072;-77
2024/02/29 10:47:03;;;;;;;15.73;10.50;;;;;;;;;;5019981;28;20030;-77
2024/02/29 10:49:41;;;;;;;17.27;9.93;;;;;;;;;;5028727;28;20084;-78
2024/02/29 10:52:12;;;;;;;18.50;10.48;;;;;;;;;;5018336;28;20037;-77
2024/02/29 10:54:59;;;;;;;16.45;10.05;;;;;;;;;;5018920;28;20036;-77
2024/02/29 10:57:30;;;;;;;22.23;13.48;;;;;;;;;;5017851;28;20089;-77
2024/02/29 11:00:05;;;;;;;22.75;14.02;;;;;;;;;;5021783;28;20030;-77
2024/02/29 11:02:31;;;;;;;23.25;12.63;;;;;;;;;;5026903;28;20025;-77
2024/02/29 11:04:57;;;;;;;19.08;11.35;;;;;;;;;;5034127;28;20072;-77
2024/02/29 11:07:24;;;;;;;19.05;11.77;;;;;;;;;;5020077;28;20018;-78
2024/02/29 11:09:50;;;;;;;16.25;10.57;;;;;;;;;;5036803;28;20029;-77
2024/02/29 11:12:21;;;;;;;18.55;11.32;;;;;;;;;;5021799;28;20462;-77
2024/02/29 11:14:52;;;;;;;19.05;12.25;;;;;;;;;;5040762;28;20034;-78
2024/02/29 11:17:18;;;;;;;17.52;10.57;;;;;;;;;;5045136;28;20473;-77
2024/02/29 11:19:45;;;;;;;16.92;10.65;;;;;;;;;;5043189;28;20021;-78
2024/02/29 11:22:12;;;;;;;16.58;10.07;;;;;;;;;;5036577;28;20026;-77
2024/02/29 11:24:40;;;;;;;15.25;10.07;;;;;;;;;;5036614;28;20430;-77
2024/02/29 11:27:10;;;;;;;14.35;9.23;;;;;;;;;;5014304;28;20100;-78
2024/02/29 11:29:37;;;;;;;13.15;8.00;;;;;;;;;;5025702;28;20032;-77
2024/02/29 11:32:04;;;;;;;10.38;6.72;;;;;;;;;;5037852;28;20088;-77
2024/02/29 11:34:30;;;;;;;8.15;6.15;;;;;;;;;;5017956;28;20034;-77
2024/02/29 11:36:56;;;;;;;21.20;12.50;;;;;;;;;;5012986;28;20477;-77
2024/02/29 11:39:23;;;;;;;18.63;12.18;;;;;;;;;;5014194;28;20033;-76
2024/02/29 11:42:06;;;;;;;15.73;9.73;;;;;;;;;;5016383;28;20033;-76
2024/02/29 11:44:36;;;;;;;18.33;10.48;;;;;;;;;;5025937;28;20033;-77
2024/02/29 11:47:02;;;;;;;19.55;11.25;;;;;;;;;;5017840;28;20053;-77
2024/02/29 11:49:29;;;;;;;22.17;13.98;;;;;;;;;;5018985;28;20104;-76
2024/02/29 11:51:55;;;;;;;22.65;12.85;;;;;;;;;;5028061;28;20037;-76
2024/02/29 11:54:21;;;;;;;20.05;12.40;;;;;;;;;;5035121;28;20393;-76
2024/02/29 11:56:48;;;;;;;15.50;9.30;;;;;;;;;;5031224;28;20031;-76
2024/02/29 11:59:15;;;;;;;14.27;8.90;;;;;;;;;;5036825;28;20030;-77
2024/02/29 12:01:42;;;;;;;11.93;8.20;;;;;;;;;;5026280;28;20022;-77
2024/02/29 12:04:08;;;;;;;13.68;8.98;;;;;;;;;;5017419;28;20025;-77
2024/02/29 12:06:39;;;;;;;15.00;9.02;;;;;;;;;;5018429;28;20030;-77
2024/02/29 12:09:06;;;;;;;13.73;8.60;;;;;;;;;;5017892;28;20096;-77
2024/02/29 12:11:33;;;;;;;12.07;7.82;;;;;;;;;;5037214;28;20018;-76
2024/02/29 12:13:59;;;;;;;11.07;7.20;;;;;;;;;;5042294;28;20030;-77
2024/02/29 12:16:26;;;;;;;19.83;12.38;;;;;;;;;;5039943;28;20029;-77
2024/02/29 12:18:52;;;;;;;20.70;13.38;;;;;;;;;;5041308;28;20025;-77
2024/02/29 12:21:18;;;;;;;17.15;12.18;;;;;;;;;;5022777;28;20026;-75
2024/02/29 12:23:44;;;;;;;16.45;9.38;;;;;;;;;;5045888;28;20213;-77
2024/02/29 12:26:11;;;;;;;12.10;7.70;;;;;;;;;;5026372;28;20079;-77
2024/02/29 12:28:41;;;;;;;19.17;11.88;;;;;;;;;;5023281;28;20037;-77
2024/02/29 12:31:08;;;;;;;18.13;10.95;;;;;;;;;;5025536;28;20026;-77
2024/02/29 12:33:38;;;;;;;24.67;14.35;;;;;;;;;;5024429;28;20041;-77
2024/02/29 12:36:05;;;;;;;23.95;12.90;;;;;;;;;;5030730;28;20061;-76
2024/02/29 12:38:31;;;;;;;23.60;14.13;;;;;;;;;;5025857;28;20057;-77
2024/02/29 12:40:58;;;;;;;19.10;12.65;;;;;;;;;;5024866;28;20037;-76
2024/02/29 12:43:24;;;;;;;23.83;13.35;;;;;;;;;;5030810;28;20049;-76
2024/02/29 12:45:51;;;;;;;23.13;13.95;;;;;;;;;;5021331;28;20036;-76
2024/02/29 12:48:17;;;;;;;22.83;14.02;;;;;;;;;;5024587;28;20036;-76
2024/02/29 12:50:43;;;;;;;16.80;11.38;;;;;;;;;;5024219;28;20047;-77
2024/02/29 12:53:09;;;;;;;14.68;9.55;;;;;;;;;;5030596;28;20081;-76
2024/02/29 12:55:35;;;;;;;13.57;8.73;;;;;;;;;;5020471;28;20041;-75
2024/02/29 12:58:02;;;;;;;18.13;10.82;;;;;;;;;;5018347;28;20033;-77
2024/02/29 13:00:29;;;;;;;16.42;9.65;;;;;;;;;;5044737;28;20030;-77
2024/02/29 13:02:55;;;;;;;16.00;10.48;;;;;;;;;;5019724;28;20056;-77
2024/02/29 13:05:21;;;;;;;26.65;14.88;;;;;;;;;;5025604;28;20112;-77
2024/02/29 13:07:48;;;;;;;27.50;15.35;;;;;;;;;;5045023;28;20030;-76
2024/02/29 13:10:14;;;;;;;21.27;13.50;;;;;;;;;;5047693;28;20030;-77
2024/02/29 13:12:43;;;;;;;17.38;11.60;;;;;;;;;;5023863;28;20080;-77
2024/02/29 13:15:10;;;;;;;20.10;12.02;;;;;;;;;;5026214;28;20037;-77
2024/02/29 13:17:36;;;;;;;18.92;11.35;;;;;;;;;;5027409;28;20120;-76
2024/02/29 13:20:02;;;;;;;18.50;12.52;;;;;;;;;;5035803;28;20038;-76
2024/02/29 13:22:28;;;;;;;23.75;14.60;;;;;;;;;;5043995;28;20037;-77
2024/02/29 13:24:54;;;;;;;25.98;13.57;;;;;;;;;;5036161;28;20024;-77
2024/02/29 13:27:20;;;;;;;19.98;13.18;;;;;;;;;;5027792;28;20036;-77
2024/02/29 13:29:47;;;;;;;24.80;15.52;;;;;;;;;;5024026;28;20109;-78
2024/02/29 13:32:13;;;;;;;25.85;15.38;;;;;;;;;;5035123;28;20080;-77
2024/02/29 13:34:39;;;;;;;23.10;13.98;;;;;;;;;;5038368;28;20497;-78
2024/02/29 13:37:06;;;;;;;22.23;12.65;;;;;;;;;;5038819;28;20032;-77
2024/02/29 13:39:32;;;;;;;27.80;16.10;;;;;;;;;;5025558;28;20104;-77
2024/02/29 13:41:58;;;;;;;26.98;17.27;;;;;;;;;;5025225;28;20028;-77
2024/02/29 13:44:25;;;;;;;28.60;18.05;;;;;;;;;;5038103;28;20081;-78
2024/02/29 13:46:51;;;;;;;34.28;18.67;;;;;;;;;;5021576;28;20022;-78
2024/02/29 13:49:17;;;;;;;27.48;16.00;;;;;;;;;;5039716;28;20095;-77
2024/02/29 13:51:43;;;;;;;29.42;16.27;;;;;;;;;;5025160;28;20044;-77
2024/02/29 13:54:11;;;;;;;38.53;21.50;;;;;;;;;;5037730;28;20052;-77
2024/02/29 13:56:37;;;;;;;31.40;18.70;;;;;;;;;;5016682;28;20025;-77
2024/02/29 13:59:03;;;;;;;40.10;22.00;;;;;;;;;;5020755;28;20022;-77
2024/02/29 14:01:29;;;;;;;36.33;20.52;;;;;;;;;;5031509;28;20040;-78
2024/02/29 14:03:55;;;;;;;33.25;18.58;;;;;;;;;;5050948;28;20029;-76
2024/02/29 14:06:21;;;;;;;37.72;20.25;;;;;;;;;;5042649;28;20044;-76
2024/02/29 14:08:48;;;;;;;38.88;22.02;;;;;;;;;;5027305;28;20033;-76
2024/02/29 14:11:14;;;;;;;35.38;19.85;;;;;;;;;;5012941;28;20028;-76
2024/02/29 14:13:40;;;;;;;32.85;17.55;;;;;;;;;;5041313;28;20120;-77
2024/02/29 14:16:06;;;;;;;34.63;20.25;;;;;;;;;;5055045;28;20060;-77